Bison, SD

11:29 AM MDT on October 01, 2014 (GMT -0600)
Faith | Change Station
CLOSE
Current Station
Airport
Location: Faith,
Elevation: 2582 ft
Nearby Weather Stations

Elev 2582 ft 45.03 °N, 102.02 °W | Updated 33 minutes ago

Overcast
Overcast
58 °F
Feels Like 58 °F
N
18
Wind Variable Wind from WNW
Gusts 25 mph

Today
High -- | Low -- °F
--% Chance of Precip.
Yesterday
High -- | Low -- °F
Precip. -- in
6:48 AM 6:30 PM
Waxing Crescent, 49% visible
Pressure 29.82 in
Visibility -9999.0 miles
Clouds
Dew Point 49 °F
Humidity 72%
Rainfall 0.07 in
Snow Depth 1 in , 0 in
UV Not available.
Pollen .90 out of 12
Air Quality Not available.
Flu Activity Not available.
METAR KD07 011656Z AUTO 29016G22KT 14/09 A2981 RMK AO1 SLP097 T01440094

More Conditions Fewer Conditions

Pressure 29.82 in
Visibility -9999.0 miles
Clouds
Dew Point 49 °F
Humidity 72%
Rainfall 0.07 in
Snow Depth 1 in , 0 in
UV Not available.
Pollen .90 out of 12
Air Quality Not available.
Flu Activity Not available.
METAR KD07 011656Z AUTO 29016G22KT 14/09 A2981 RMK AO1 SLP097 T01440094

More Conditions Fewer Conditions

10-Day Weather Forecast

Almanac

Astronomy

Oct. 01, 2014 Rise Set
Actual Time 6:48 AM MDT 6:30 PM MDT
Civil Twilight 6:18 AM MDT 6:59 PM MDT
Nautical Twilight 5:44 AM MDT 7:33 PM MDT
Astronomical Twilight 5:09 AM MDT 8:08 PM MDT
Moon 2:03 PM MDT 11:52 PM MDT
Length of Visible Light 12h 40m
Length of Day
11h 41m
Tomorrow will be 3m 9s shorter.
Waxing Crescent, 49% of the Moon is Illuminated
Today
Waxing Crescent
Oct 1
First Quarter
Oct 8
Full
Oct 15
Last Quarter
Oct 23
New

Today's Extremes

State Highs State Lows

Community

WunderPhotos

Upload Photos

1,757,987 photos uploaded!

WunderBlogs® & News

By Dr. Jeff Masters
Director of Meteorology, Weather Underground
By Kari Strenfel
Meteorologist, Weather Underground
By Christopher C. Burt
Weather Historian, Weather Underground
October 1, 2014
October 1, 2014
October 1, 2014

Nearby

Snow Depth

Station Depth Elevation
Blind Park 1 in 6890 ft
North Rapid Creek 0 in 6130 ft

Earthquake Activity

City Distance Mag. Time & Date
No recent earthquake activity has been reported nearby.
Minimum magnitude displayed is 2.5.

Coastal Water Temperatures

Place Temperature
No Stations Reporting

Nearby Weather Stations